Flight Track Log - Related Links

Times and Time Zones

All times are in EDT time to prevent confusion due to time zone crossing. See the SYN564 flight status page for this flight to view local times or setup timezone preferences in your user account.

Time Position Orientation Groundspeed Altitude Reporting Facility
EDT Latitude Longitude Course Direction KTS MPH feet Rate Location/Type
Tue 07:54:05 PM 51.1000 -114.0333 North 170 196 5,000  Level Edmonton Center
Tue 07:55:05 PM 51.1667 -114.0500 351° North 220 253 7,900 2,850 Climbing Edmonton Center
Tue 07:56:05 PM 51.2333 -114.0667 351° North 260 299 10,700 2,850 Climbing Edmonton Center
Tue 07:57:05 PM 51.3167 -114.0500 North 300 345 13,600 2,700 Climbing Edmonton Center
Tue 07:58:05 PM 51.4000 -114.0667 353° North 310 357 16,100 2,500 Climbing Edmonton Center
Tue 07:59:00 PM 51.6196 -113.9226 North  Level Estimated
Tue 07:59:05 PM 51.4833 -114.0667 360° North 330 380 18,600  Level Edmonton Center
Tue 08:00:05 PM 51.5833 -114.0833 354° North 340 391 20,800 2,000 Climbing Edmonton Center
Tue 08:01:05 PM 51.6833 -114.1000 354° North 350 403 22,600 1,550 Climbing Edmonton Center
Tue 08:02:05 PM 51.8000 -114.1000 360° North 370 426 23,900 1,200 Climbing Edmonton Center
Tue 08:03:05 PM 51.9000 -114.1167 354° North 380 437 25,000 550 Climbing Edmonton Center
Tue 08:04:05 PM 52.0167 -114.1167 360° North 410 472 25,000 -350 Level Edmonton Center
Tue 08:05:05 PM 52.1333 -114.1167 360° North 420 483 24,300 -1,050 Descending Edmonton Center
Tue 08:06:05 PM 52.2333 -114.0833 12° North 410 472 22,900 -1,450 Descending Edmonton Center
Tue 08:07:05 PM 52.3500 -114.0500 10° North 400 460 21,400 -1,650 Descending Edmonton Center
Tue 08:08:05 PM 52.4667 -114.0000 15° North 380 437 19,600 -1,950 Descending Edmonton Center
Tue 08:09:05 PM 52.5500 -113.9833 North 340 391 17,500 -1,800 Descending Edmonton Center
Tue 08:10:05 PM 52.6333 -113.9500 14° North 320 368 16,000 -2,100 Descending Edmonton Center
Tue 08:11:05 PM 52.7167 -113.9167 14° North 310 357 13,300 -2,250 Descending Edmonton Center
Tue 08:12:05 PM 52.7833 -113.8500 31° Northeast 290 334 11,500 -1,600 Descending Edmonton Center
Tue 08:13:05 PM 52.8500 -113.7667 37° Northeast 320 368 10,100 -1,450 Descending Edmonton Center
Tue 08:14:05 PM 52.9167 -113.6667 42° Northeast 310 357 8,600 -1,400 Descending Edmonton Center
Tue 08:15:05 PM 52.9667 -113.5667 50° Northeast 280 322 7,300 -1,350 Descending Edmonton Center
Tue 08:16:05 PM 53.0333 -113.5000 31° Northeast 270 311 5,900 -1,250 Descending Edmonton Center
Tue 08:17:05 PM 53.0833 -113.4333 39° Northeast 240 276 4,800 -900 Descending Edmonton Center
Tue 08:18:05 PM 53.1333 -113.4167 11° North 200 230 4,100 -350 Descending Edmonton Center
Tue 08:19:05 PM 53.1833 -113.4667 329° Northwest 180 207 4,100 -300 Level Edmonton Center
Tue 08:20:05 PM 53.2167 -113.5167 318° Northwest 180 207 3,500 -750 Descending Edmonton Center
Tue 08:21:05 PM 53.2500 -113.5667 318° Northwest 160 184 2,600 -550 Descending Edmonton Center
Tue 08:22:05 PM 53.2833 -113.6000 329° Northwest 140 161 2,400 -200 Descending Edmonton Center

Login

Don't have an account? Register now (free) for customized features, flight alerts, and more!